createdAt,value
2023-01-16T00:01:58.433Z,31.60
2023-01-16T00:04:26.109Z,41.38
2023-01-16T00:06:53.417Z,19.65
2023-01-16T00:09:20.842Z,20.98
2023-01-16T00:11:50.894Z,23.75
2023-01-16T00:14:18.342Z,16.95
2023-01-16T00:16:45.598Z,17.30
2023-01-16T00:19:12.958Z,22.27
2023-01-16T00:21:40.348Z,16.80
2023-01-16T00:24:08.916Z,20.90
2023-01-16T00:26:36.158Z,28.42
2023-01-16T00:29:03.493Z,30.70
2023-01-16T00:31:30.997Z,27.77
2023-01-16T00:33:58.335Z,33.85
2023-01-16T00:36:25.716Z,17.60
2023-01-16T00:38:53.462Z,29.45
2023-01-16T00:41:20.978Z,23.77
2023-01-16T00:43:48.391Z,22.27
2023-01-16T00:46:15.752Z,33.63
2023-01-16T00:48:45.805Z,20.90
2023-01-16T00:51:13.094Z,32.75
2023-01-16T00:53:40.386Z,24.67
2023-01-16T00:56:07.913Z,36.28
2023-01-16T00:58:35.897Z,32.40
2023-01-16T01:01:03.602Z,43.97
2023-01-16T01:03:30.953Z,30.85
2023-01-16T01:05:58.239Z,32.38
2023-01-16T01:08:25.471Z,33.63
2023-01-16T01:10:53.572Z,28.45
2023-01-16T01:13:20.818Z,24.58
2023-01-16T01:15:48.271Z,36.25
2023-01-16T01:18:15.714Z,30.83
2023-01-16T01:20:42.986Z,34.83
2023-01-16T01:23:10.219Z,36.42
2023-01-16T01:25:39.543Z,30.63
2023-01-16T01:28:06.842Z,28.75
2023-01-16T01:30:34.228Z,29.90
2023-01-16T01:33:01.609Z,32.80
2023-01-16T01:35:29.188Z,40.28
2023-01-16T01:37:56.474Z,33.47
2023-01-16T01:40:23.740Z,36.88
2023-01-16T01:42:55.050Z,33.15
2023-01-16T01:48:14.944Z,31.70
2023-01-16T01:50:47.939Z,34.10
2023-01-16T01:53:22.315Z,28.23
2023-01-16T01:55:49.560Z,39.45
2023-01-16T01:58:22.848Z,32.75
2023-01-16T02:00:51.717Z,33.90
2023-01-16T02:03:29.270Z,29.38
2023-01-16T02:05:58.021Z,29.70
2023-01-16T02:11:01.108Z,28.52
2023-01-16T02:13:28.631Z,31.88
2023-01-16T02:16:15.676Z,31.55
2023-01-16T02:19:01.651Z,26.92
2023-01-16T02:21:54.063Z,33.03
2023-01-16T02:24:58.310Z,30.20
2023-01-16T02:28:03.080Z,34.33
2023-01-16T02:30:48.941Z,30.25
2023-01-16T02:33:32.029Z,34.03
2023-01-16T02:36:08.156Z,37.22
2023-01-16T02:38:58.647Z,29.98
2023-01-16T02:41:28.861Z,28.03
2023-01-16T02:44:00.755Z,31.65
2023-01-16T02:46:46.753Z,30.25
2023-01-16T02:49:23.930Z,39.10
2023-01-16T02:51:59.935Z,31.13
2023-01-16T02:54:41.904Z,45.38
2023-01-16T02:57:11.637Z,33.42
2023-01-16T02:59:41.343Z,35.83
2023-01-16T03:02:09.733Z,42.10
2023-01-16T03:04:37.306Z,39.40
2023-01-16T03:07:13.743Z,31.50
2023-01-16T03:10:01.868Z,40.10
2023-01-16T03:12:54.023Z,36.95
2023-01-16T03:15:39.812Z,35.50
2023-01-16T03:18:11.746Z,30.27
2023-01-16T03:20:53.276Z,45.47
2023-01-16T03:23:30.261Z,32.30
2023-01-16T03:26:02.234Z,35.67
2023-01-16T03:28:36.029Z,38.17
2023-01-16T03:31:38.466Z,31.90
2023-01-16T03:34:10.103Z,30.27
2023-01-16T03:36:43.256Z,31.67
2023-01-16T03:39:11.396Z,49.35
2023-01-16T03:41:39.271Z,38.20
2023-01-16T03:44:09.678Z,34.45
2023-01-16T03:46:49.037Z,40.50
2023-01-16T03:49:38.319Z,33.30
2023-01-16T03:52:06.229Z,34.95
2023-01-16T03:54:53.851Z,32.92
2023-01-16T03:57:25.496Z,33.90
2023-01-16T03:59:53.308Z,38.83
2023-01-16T04:02:29.382Z,44.50
2023-01-16T04:05:04.949Z,31.58
2023-01-16T04:07:45.639Z,52.15
2023-01-16T04:10:16.332Z,34.17
2023-01-16T04:12:52.009Z,44.38
2023-01-16T04:15:19.454Z,34.92
2023-01-16T04:17:46.690Z,36.53
2023-01-16T04:20:14.251Z,31.83
2023-01-16T04:22:41.753Z,48.58
2023-01-16T04:25:09.728Z,34.78
2023-01-16T04:27:39.029Z,42.83
2023-01-16T04:30:07.563Z,35.25
2023-01-16T04:32:34.928Z,53.85
2023-01-16T04:35:02.476Z,45.03
2023-01-16T04:37:30.131Z,40.58
2023-01-16T04:39:57.377Z,58.13
2023-01-16T04:42:24.596Z,50.53
2023-01-16T04:44:51.931Z,29.90
2023-01-16T04:47:19.194Z,51.25
2023-01-16T04:49:47.332Z,56.88
2023-01-16T04:52:14.723Z,31.38
2023-01-16T04:54:41.922Z,35.30
2023-01-16T04:57:09.268Z,37.28
2023-01-16T04:59:36.498Z,38.70
2023-01-16T05:02:03.843Z,45.10
2023-01-16T05:04:33.320Z,41.88
2023-01-16T05:07:00.566Z,48.63
2023-01-16T05:09:27.946Z,36.10
2023-01-16T05:11:55.216Z,46.20
2023-01-16T05:14:22.624Z,55.03
2023-01-16T05:16:49.938Z,41.63
2023-01-16T05:19:17.302Z,41.03
2023-01-16T05:21:44.701Z,36.20
2023-01-16T05:24:11.996Z,40.42
2023-01-16T05:26:42.187Z,35.80
2023-01-16T05:29:09.471Z,35.25
2023-01-16T05:31:37.724Z,50.40
2023-01-16T05:34:05.420Z,44.75
2023-01-16T05:36:33.144Z,37.38
2023-01-16T05:39:00.449Z,45.10
2023-01-16T05:41:29.150Z,32.90
2023-01-16T05:43:56.381Z,54.97
2023-01-16T05:46:25.622Z,49.30
2023-01-16T05:48:52.866Z,44.28
2023-01-16T05:51:20.288Z,45.50
2023-01-16T05:53:51.856Z,41.10
2023-01-16T05:56:21.167Z,63.08
2023-01-16T05:58:48.737Z,31.15
2023-01-16T06:01:16.053Z,43.13
2023-01-16T06:03:43.341Z,41.38
2023-01-16T06:06:10.611Z,43.13
2023-01-16T06:08:38.094Z,32.47
2023-01-16T06:11:10.150Z,59.78
2023-01-16T06:13:37.451Z,35.70
2023-01-16T06:16:08.162Z,34.80
2023-01-16T06:18:35.413Z,36.85
2023-01-16T06:21:03.186Z,47.92
2023-01-16T06:23:33.492Z,40.13
2023-01-16T06:26:02.100Z,47.20
2023-01-16T06:28:29.554Z,55.33
2023-01-16T06:30:57.224Z,43.10
2023-01-16T06:33:24.568Z,39.20
2023-01-16T06:35:52.176Z,57.20
2023-01-16T06:38:19.433Z,52.53
2023-01-16T06:40:46.945Z,45.67
2023-01-16T06:43:14.265Z,48.28
2023-01-16T06:45:41.510Z,35.65
2023-01-16T06:48:08.850Z,38.17
2023-01-16T06:50:36.362Z,31.83
2023-01-16T06:53:03.653Z,34.72
2023-01-16T06:55:34.441Z,46.95
2023-01-16T06:58:01.802Z,39.65
2023-01-16T07:00:29.385Z,33.38
2023-01-16T07:02:57.374Z,39.38
2023-01-16T07:05:25.351Z,46.13
2023-01-16T07:07:52.713Z,50.33
2023-01-16T07:10:21.462Z,45.97
2023-01-16T07:12:49.814Z,36.72
2023-01-16T07:15:35.981Z,46.92
2023-01-16T07:18:21.694Z,45.92
2023-01-16T07:21:15.691Z,53.30
2023-01-16T07:23:45.238Z,56.22
2023-01-16T07:26:12.817Z,53.80
2023-01-16T07:28:41.948Z,39.83
2023-01-16T07:31:09.301Z,49.42
2023-01-16T07:33:36.799Z,49.72
2023-01-16T07:36:04.493Z,47.00
2023-01-16T07:38:32.195Z,37.55
2023-01-16T07:40:59.442Z,50.67
2023-01-16T07:43:29.271Z,40.38
2023-01-16T07:45:56.696Z,57.30
2023-01-16T07:48:24.065Z,40.80
2023-01-16T07:50:52.431Z,36.03
2023-01-16T07:53:22.565Z,46.03
2023-01-16T07:55:50.948Z,55.00
2023-01-16T07:58:18.588Z,52.67
2023-01-16T08:00:45.900Z,48.20
2023-01-16T08:03:14.674Z,44.78
2023-01-16T08:05:44.261Z,53.22
2023-01-16T08:08:12.546Z,53.42
2023-01-16T08:10:39.892Z,60.35
2023-01-16T08:13:07.189Z,48.88
2023-01-16T08:15:34.604Z,46.33
2023-01-16T08:18:01.887Z,41.83
2023-01-16T08:20:29.768Z,53.50
2023-01-16T08:22:59.010Z,50.58
2023-01-16T08:25:27.276Z,44.63
2023-01-16T08:27:54.508Z,61.67
2023-01-16T08:30:21.721Z,62.47
2023-01-16T08:32:49.120Z,60.22
2023-01-16T08:35:16.750Z,46.40
2023-01-16T08:37:50.495Z,54.70
2023-01-16T08:40:18.262Z,49.70
2023-01-16T08:43:03.974Z,52.75
2023-01-16T08:45:49.810Z,52.05
2023-01-16T08:48:39.459Z,45.85
2023-01-16T08:51:26.068Z,40.38
2023-01-16T08:53:54.779Z,47.55
2023-01-16T08:56:23.088Z,55.97
2023-01-16T08:58:50.469Z,57.08
2023-01-16T09:01:17.874Z,66.43
2023-01-16T09:03:45.841Z,49.13
2023-01-16T09:06:13.253Z,50.38
2023-01-16T09:08:40.473Z,60.95
2023-01-16T09:11:26.886Z,54.60
2023-01-16T09:13:54.238Z,54.63
2023-01-16T09:16:23.175Z,59.08
2023-01-16T09:18:50.504Z,70.38
2023-01-16T09:21:19.733Z,60.60
2023-01-16T09:23:47.412Z,73.18
2023-01-16T09:26:14.670Z,68.53
2023-01-16T09:28:41.926Z,58.05
2023-01-16T09:31:09.193Z,75.68
2023-01-16T09:33:38.152Z,63.90
2023-01-16T09:36:05.872Z,78.13
2023-01-16T09:38:34.434Z,71.28
2023-01-16T09:41:02.627Z,72.18
2023-01-16T09:43:43.719Z,81.05
2023-01-16T09:46:17.040Z,57.83
2023-01-16T09:48:56.401Z,56.97
2023-01-16T09:51:37.540Z,56.40
2023-01-16T09:54:37.431Z,55.42
2023-01-16T09:57:27.522Z,52.78
2023-01-16T09:59:55.433Z,57.17
2023-01-16T10:02:33.702Z,60.83
2023-01-16T10:05:03.634Z,51.25
2023-01-16T10:07:52.712Z,56.50
2023-01-16T10:10:30.721Z,59.25
2023-01-16T10:13:27.701Z,48.97
2023-01-16T10:16:20.994Z,43.97
2023-01-16T10:19:07.225Z,52.17
2023-01-16T10:21:40.327Z,44.92
2023-01-16T10:24:16.478Z,47.28
2023-01-16T10:26:59.590Z,48.20
2023-01-16T10:29:31.405Z,45.28
2023-01-16T10:32:04.585Z,46.05
2023-01-16T10:34:38.474Z,40.20
2023-01-16T10:37:05.871Z,50.35
2023-01-16T10:39:34.809Z,48.22
2023-01-16T10:42:31.289Z,42.10
2023-01-16T10:45:23.294Z,52.75
2023-01-16T10:48:12.236Z,55.13
2023-01-16T10:50:39.495Z,56.28
2023-01-16T10:53:07.124Z,61.08
2023-01-16T10:55:35.311Z,36.53
2023-01-16T10:58:05.593Z,58.05
2023-01-16T11:00:42.887Z,51.27
2023-01-16T11:03:18.114Z,48.20
2023-01-16T11:05:45.504Z,50.50
2023-01-16T11:08:19.947Z,54.55
2023-01-16T11:10:48.645Z,53.05
2023-01-16T11:13:38.729Z,51.22
2023-01-16T11:16:31.565Z,44.03
2023-01-16T11:18:59.534Z,52.67
2023-01-16T11:21:31.452Z,48.70
2023-01-16T11:24:00.407Z,42.28
2023-01-16T11:26:28.405Z,41.55
2023-01-16T11:28:55.933Z,46.38
2023-01-16T11:31:26.436Z,47.00
2023-01-16T11:33:58.368Z,38.25
2023-01-16T11:36:25.872Z,47.88
2023-01-16T11:38:53.083Z,30.15
2023-01-16T11:41:21.893Z,45.10
2023-01-16T11:44:48.394Z,45.10
2023-01-16T11:47:22.131Z,31.80
2023-01-16T11:49:51.461Z,43.65
2023-01-16T11:52:29.306Z,34.90
2023-01-16T11:55:04.472Z,42.22
2023-01-16T11:57:37.806Z,40.03
2023-01-16T12:00:08.375Z,40.40
2023-01-16T12:02:47.995Z,33.13
2023-01-16T12:05:44.277Z,34.30
2023-01-16T12:08:39.640Z,33.85
2023-01-16T12:11:29.675Z,31.00
2023-01-16T12:14:17.676Z,34.63
2023-01-16T12:17:22.379Z,33.15
2023-01-16T12:20:08.465Z,36.92
2023-01-16T12:23:15.947Z,38.60
2023-01-16T12:25:54.347Z,37.42
2023-01-16T12:28:43.234Z,47.00
2023-01-16T12:31:39.703Z,40.90
2023-01-16T12:34:30.242Z,44.50
2023-01-16T12:37:12.277Z,48.30
2023-01-16T12:40:04.160Z,46.60
2023-01-16T12:43:15.614Z,43.03
2023-01-16T12:46:02.015Z,38.17
2023-01-16T12:48:32.399Z,36.08
2023-01-16T12:51:18.370Z,33.83
2023-01-16T12:54:00.981Z,27.15
2023-01-16T12:56:46.691Z,43.05
2023-01-16T12:59:26.441Z,30.10
2023-01-16T13:01:57.833Z,34.45
2023-01-16T13:04:30.468Z,40.30
2023-01-16T13:06:58.320Z,40.80
2023-01-16T13:09:37.699Z,34.20
2023-01-16T13:12:42.120Z,42.10
2023-01-16T13:15:16.452Z,44.28
2023-01-16T13:17:50.079Z,40.00
2023-01-16T13:20:18.600Z,34.95
2023-01-16T13:22:53.353Z,47.05
2023-01-16T13:25:38.539Z,28.98
2023-01-16T13:28:30.675Z,32.20
2023-01-16T13:31:00.949Z,40.22
2023-01-16T13:33:30.659Z,35.42
2023-01-16T13:36:03.991Z,30.42
2023-01-16T13:38:56.671Z,27.73
2023-01-16T13:41:25.790Z,37.80
2023-01-16T13:44:27.418Z,27.45
2023-01-16T13:46:54.641Z,31.95
2023-01-16T13:49:23.516Z,40.25
2023-01-16T13:51:50.943Z,33.70
2023-01-16T13:54:25.173Z,29.65
2023-01-16T13:57:03.496Z,42.25
2023-01-16T13:59:38.225Z,38.17
2023-01-16T14:02:39.715Z,42.47
2023-01-16T14:05:07.758Z,44.40
2023-01-16T14:08:09.846Z,41.17
2023-01-16T14:10:47.617Z,41.75
2023-01-16T14:13:38.698Z,42.85
2023-01-16T14:16:38.487Z,50.95
2023-01-16T14:19:17.659Z,56.05
2023-01-16T14:22:05.152Z,41.92
2023-01-16T14:24:48.236Z,40.28
2023-01-16T14:27:16.885Z,50.67
2023-01-16T14:29:53.408Z,60.40
2023-01-16T14:32:21.713Z,42.67
2023-01-16T14:35:05.045Z,52.22
2023-01-16T14:37:47.232Z,46.67
2023-01-16T14:40:17.495Z,45.08
2023-01-16T14:43:03.732Z,48.38
2023-01-16T14:45:55.288Z,34.50
2023-01-16T14:48:41.279Z,39.35
2023-01-16T14:51:37.303Z,40.08
2023-01-16T14:54:26.266Z,43.55
2023-01-16T14:56:58.863Z,42.50
2023-01-16T14:59:32.037Z,37.47
2023-01-16T15:02:31.519Z,34.78
2023-01-16T15:05:05.214Z,39.10
2023-01-16T15:07:45.605Z,40.35
2023-01-16T15:10:16.690Z,34.58
2023-01-16T15:12:44.791Z,36.72
2023-01-16T15:15:29.597Z,40.40
2023-01-16T15:18:16.374Z,32.58
2023-01-16T15:21:05.489Z,34.97
2023-01-16T15:23:37.638Z,23.52
2023-01-16T15:26:04.937Z,29.23
2023-01-16T15:28:38.403Z,30.65
2023-01-16T15:31:19.222Z,26.20
2023-01-16T15:33:48.340Z,31.70
2023-01-16T15:36:24.994Z,29.73
2023-01-16T15:39:23.462Z,27.02
2023-01-16T15:42:14.133Z,36.55
2023-01-16T15:45:02.444Z,30.83
2023-01-16T15:47:39.294Z,25.17
2023-01-16T15:50:18.436Z,27.15
2023-01-16T15:52:45.684Z,32.97
2023-01-16T15:55:20.424Z,26.83
2023-01-16T15:57:49.503Z,29.67
2023-01-16T16:00:27.703Z,31.13
2023-01-16T16:03:10.756Z,23.60
2023-01-16T16:05:38.544Z,28.67
2023-01-16T16:08:07.248Z,27.48
2023-01-16T16:10:53.554Z,29.60
2023-01-16T16:13:20.854Z,30.40
2023-01-16T16:16:22.322Z,22.10
2023-01-16T16:18:58.517Z,27.75
2023-01-16T16:21:34.106Z,32.75
2023-01-16T16:24:03.743Z,29.60
2023-01-16T16:26:31.311Z,22.08
2023-01-16T16:29:00.686Z,26.33
2023-01-16T16:31:35.490Z,26.00
2023-01-16T16:34:07.908Z,23.00
2023-01-16T16:36:39.775Z,24.70
2023-01-16T16:39:37.840Z,26.75
2023-01-16T16:42:30.761Z,24.92
2023-01-16T16:45:28.371Z,27.85
2023-01-16T16:48:20.501Z,27.52
2023-01-16T16:50:47.855Z,22.85
2023-01-16T16:53:16.503Z,19.73
2023-01-16T16:55:47.008Z,19.77
2023-01-16T16:58:22.848Z,25.38
2023-01-16T17:00:50.896Z,23.73
2023-01-16T17:03:22.342Z,18.25
2023-01-16T17:05:52.705Z,17.70
2023-01-16T17:08:24.434Z,18.07
2023-01-16T17:10:51.915Z,16.98
2023-01-16T17:13:19.886Z,17.08
2023-01-16T17:15:49.938Z,19.92
2023-01-16T17:18:17.178Z,26.55
2023-01-16T17:20:44.582Z,22.92
2023-01-16T17:23:14.320Z,20.73
2023-01-16T17:25:45.599Z,19.45
2023-01-16T17:28:12.923Z,18.05
2023-01-16T17:30:40.197Z,18.80
2023-01-16T17:33:11.102Z,18.73
2023-01-16T17:35:41.700Z,22.80
2023-01-16T17:38:19.495Z,19.65
2023-01-16T17:40:46.868Z,21.00
2023-01-16T17:43:41.761Z,22.23
2023-01-16T17:46:16.521Z,17.80
2023-01-16T17:48:43.872Z,17.27
2023-01-16T17:51:11.360Z,24.83
2023-01-16T17:53:38.627Z,17.27
2023-01-16T17:56:07.204Z,16.73
2023-01-16T17:58:47.988Z,19.88
2023-01-16T18:01:22.887Z,18.92
2023-01-16T18:04:07.467Z,17.02
2023-01-16T18:06:35.361Z,23.25
2023-01-16T18:09:08.083Z,16.77
2023-01-16T18:11:55.183Z,14.85
2023-01-16T18:14:41.813Z,22.50
2023-01-16T18:17:24.865Z,20.13
2023-01-16T18:19:56.774Z,14.93
2023-01-16T18:22:28.162Z,11.65
2023-01-16T18:27:22.644Z,13.20
2023-01-16T18:29:49.998Z,15.00
2023-01-16T18:32:43.519Z,12.93
2023-01-16T18:35:10.804Z,11.73
2023-01-16T18:37:40.243Z,14.73
2023-01-16T18:40:30.891Z,15.65
2023-01-16T18:43:17.040Z,14.98
2023-01-16T18:46:02.916Z,12.57
2023-01-16T18:48:49.460Z,13.85
2023-01-16T18:51:36.263Z,14.88
2023-01-16T18:54:31.295Z,13.20
2023-01-16T18:57:16.989Z,11.40
2023-01-16T19:00:07.531Z,12.02
2023-01-16T19:02:45.060Z,19.35
2023-01-16T19:05:13.079Z,11.48
2023-01-16T19:07:45.432Z,14.55
2023-01-16T19:10:15.836Z,9.30
2023-01-16T19:12:43.120Z,10.18
2023-01-16T19:15:10.954Z,12.95
2023-01-16T19:17:38.323Z,16.83
2023-01-16T19:20:06.289Z,14.77
2023-01-16T19:22:33.726Z,12.45
2023-01-16T19:25:00.930Z,11.15
2023-01-16T19:27:28.511Z,12.75
2023-01-16T19:29:55.696Z,12.20
2023-01-16T19:32:23.037Z,10.10
2023-01-16T19:34:53.202Z,10.18
2023-01-16T19:37:20.896Z,13.10
2023-01-16T19:39:48.142Z,8.25
2023-01-16T19:42:34.771Z,10.68
2023-01-16T19:45:20.805Z,12.77
2023-01-16T19:47:48.041Z,12.43
2023-01-16T19:50:15.668Z,15.25
2023-01-16T19:52:42.889Z,12.98
2023-01-16T19:55:11.368Z,10.48
2023-01-16T19:57:38.722Z,14.05
2023-01-16T20:00:07.180Z,11.40
2023-01-16T20:02:35.240Z,11.95
2023-01-16T20:05:02.706Z,10.05
2023-01-16T20:07:30.128Z,12.38
2023-01-16T20:09:57.386Z,9.98
2023-01-16T20:12:25.068Z,16.13
2023-01-16T20:14:52.931Z,10.38
2023-01-16T20:17:21.723Z,14.75
2023-01-16T20:19:50.427Z,15.77
2023-01-16T20:22:33.805Z,16.33
2023-01-16T20:25:02.719Z,10.43
2023-01-16T20:27:30.565Z,13.93
2023-01-16T20:29:57.776Z,16.02
2023-01-16T20:32:27.451Z,11.52
2023-01-16T20:34:55.840Z,9.68
2023-01-16T20:37:23.240Z,9.77
2023-01-16T20:39:53.079Z,10.48
2023-01-16T20:42:38.872Z,11.93
2023-01-16T20:45:25.256Z,9.68
2023-01-16T20:47:52.470Z,10.73
2023-01-16T20:50:19.782Z,10.00
2023-01-16T20:52:48.808Z,10.82
2023-01-16T20:55:19.293Z,14.73
2023-01-16T20:57:50.929Z,13.27
2023-01-16T21:00:19.851Z,12.65
2023-01-16T21:02:47.261Z,11.48
2023-01-16T21:05:14.626Z,11.30
2023-01-16T21:07:42.461Z,11.35
2023-01-16T21:10:10.595Z,9.90
2023-01-16T21:12:56.843Z,7.68
2023-01-16T21:15:24.141Z,8.23
2023-01-16T21:18:10.063Z,12.80
2023-01-16T21:20:55.877Z,12.55
2023-01-16T21:23:23.204Z,10.48
2023-01-16T21:25:59.568Z,10.25
2023-01-16T21:28:27.415Z,11.80
2023-01-16T21:30:54.684Z,9.25
2023-01-16T21:33:21.943Z,7.70
2023-01-16T21:35:52.200Z,7.10
2023-01-16T21:38:19.435Z,10.35
2023-01-16T21:40:46.839Z,11.13
2023-01-16T21:43:47.139Z,12.32
2023-01-16T21:46:29.610Z,8.52
2023-01-16T21:48:57.255Z,10.98
2023-01-16T21:51:27.607Z,10.80
2023-01-16T21:53:55.792Z,13.75
2023-01-16T21:56:23.650Z,7.93
2023-01-16T21:58:51.819Z,13.93
2023-01-16T22:01:19.839Z,8.43
2023-01-16T22:03:47.324Z,13.18
2023-01-16T22:06:14.587Z,10.48
2023-01-16T22:08:42.140Z,10.45
2023-01-16T22:11:29.205Z,11.50
2023-01-16T22:14:15.237Z,16.67
2023-01-16T22:17:01.048Z,11.38
2023-01-16T22:19:35.163Z,10.95
2023-01-16T22:22:02.417Z,10.13
2023-01-16T22:24:29.935Z,10.23
2023-01-16T22:26:57.421Z,15.27
2023-01-16T22:29:24.803Z,10.38
2023-01-16T22:31:52.058Z,11.68
2023-01-16T22:34:19.320Z,11.25
2023-01-16T22:36:48.693Z,8.20
2023-01-16T22:39:17.679Z,8.00
2023-01-16T22:41:47.097Z,11.57
2023-01-16T22:44:33.095Z,13.90
2023-01-16T22:47:01.917Z,10.98
2023-01-16T22:49:29.726Z,11.45
2023-01-16T22:51:57.125Z,12.77
2023-01-16T22:54:24.425Z,9.25
2023-01-16T22:56:51.732Z,11.20
2023-01-16T22:59:19.303Z,7.70
2023-01-16T23:01:46.950Z,8.75
2023-01-16T23:04:14.156Z,14.10
2023-01-16T23:06:41.447Z,10.73
2023-01-16T23:09:08.880Z,10.55
2023-01-16T23:11:37.480Z,9.80
2023-01-16T23:14:07.293Z,8.32
2023-01-16T23:16:36.882Z,10.98
2023-01-16T23:19:05.710Z,6.57
2023-01-16T23:21:35.750Z,8.60
2023-01-16T23:24:04.296Z,12.32
2023-01-16T23:26:32.519Z,15.65
2023-01-16T23:29:01.257Z,9.98
2023-01-16T23:31:28.739Z,14.60
2023-01-16T23:33:56.024Z,9.25
2023-01-16T23:36:27.076Z,8.77
2023-01-16T23:38:54.338Z,14.73
2023-01-16T23:41:46.851Z,10.00
2023-01-16T23:44:34.902Z,10.40
2023-01-16T23:47:02.026Z,5.78
2023-01-16T23:49:33.959Z,12.18
2023-01-16T23:52:01.715Z,8.13
2023-01-16T23:54:29.555Z,12.98
2023-01-16T23:56:56.875Z,9.55
2023-01-16T23:59:24.124Z,7.95
